Time;durP1;ratioP1;P1;durP2;ratioP2;P2;SDS_P1;SDS_P2;PMS_P1;PMS_P2;Temp;Humidity;BMP_temperature;BMP_pressure;BME280_temperature;BME280_humidity;BME280_pressure;Samples;Min_cycle;Max_cycle;Signal;HPM_P1;HPM_P2
2022/08/16 00:00:05;;;;;;;;;;;;;;;26.67;61.91;100644.88;5083776;28;20024;-81
2022/08/16 00:02:32;;;;;;;15.27;12.87;;;;;;;26.61;62.00;100648.53;5056410;28;19908;-81
2022/08/16 00:04:58;;;;;;;15.05;12.48;;;;;;;26.36;62.12;100606.00;5058758;28;20024;-81
2022/08/16 00:07:23;;;;;;;;;;;;;;;26.64;61.91;100651.16;5073274;28;20032;-81
2022/08/16 00:09:49;;;;;;;16.35;12.82;;;;;;;26.59;62.35;100658.38;5074032;28;19919;-80
2022/08/16 00:12:14;;;;;;;;;;;;;;;26.62;61.85;100661.00;5072884;28;20123;-81
2022/08/16 00:14:40;;;;;;;15.00;12.43;;;;;;;26.60;62.01;100657.47;5054171;28;20015;-82
2022/08/16 00:17:05;;;;;;;;;;;;;;;26.61;61.96;100667.28;5074128;28;20112;-80
2022/08/16 00:19:33;;;;;;;16.10;12.48;;;;;;;26.58;62.27;100670.00;5073796;28;19912;-82
2022/08/16 00:21:59;;;;;;;15.13;12.40;;;;;;;26.55;62.45;100670.91;5072894;28;20016;-80
2022/08/16 00:24:26;;;;;;;14.68;12.75;;;;;;;26.53;62.13;100663.78;5073662;28;20028;-81
2022/08/16 00:26:52;;;;;;;15.27;12.27;;;;;;;26.57;62.17;100665.56;5072992;28;20023;-81
2022/08/16 00:29:17;;;;;;;15.70;12.93;;;;;;;26.57;62.22;100670.91;5072337;28;20556;-80
2022/08/16 00:31:44;;;;;;;;;;;;;;;26.63;61.75;100675.28;5073702;28;20060;-81
2022/08/16 00:34:10;;;;;;;13.97;11.97;;;;;;;26.44;62.17;100654.09;5072103;28;20369;-81
2022/08/16 00:36:35;;;;;;;;;;;;;;;26.58;61.76;100678.03;5072772;28;20040;-81
2022/08/16 00:39:01;;;;;;;14.43;12.15;;;;;;;26.59;61.83;100674.47;5073340;28;19931;-81
2022/08/16 00:41:27;;;;;;;;;;;;;;;26.60;62.03;100674.41;5074098;28;20081;-81
2022/08/16 00:43:52;;;;;;;15.13;12.23;;;;;;;26.54;62.16;100661.09;5072252;28;19908;-82
2022/08/16 00:46:26;;;;;;;;;;;;;;;26.57;61.68;100673.59;5073463;28;20103;-81
2022/08/16 00:48:52;;;;;;;16.27;12.32;;;;;;;26.31;61.84;100631.94;5072328;28;19909;-81
2022/08/16 00:51:21;;;;;;;17.92;12.93;;;;;;;26.56;61.75;100677.13;5073067;28;20031;-81
2022/08/16 00:53:47;;;;;;;15.95;12.60;;;;;;;26.52;62.10;100670.94;5071902;28;20032;-81
2022/08/16 00:56:18;;;;;;;15.48;12.35;;;;;;;26.45;61.90;100661.22;5073214;28;20031;-81
2022/08/16 00:58:46;;;;;;;16.02;12.77;;;;;;;26.53;62.11;100672.69;5073369;28;20077;-81
2022/08/16 01:01:14;;;;;;;13.82;11.90;;;;;;;26.44;62.06;100663.91;5062314;28;20494;-81
2022/08/16 01:03:42;;;;;;;14.80;12.63;;;;;;;26.54;61.64;100673.59;5068221;28;20024;-81
2022/08/16 01:06:10;;;;;;;16.20;13.13;;;;;;;26.43;61.99;100673.72;5072551;28;20024;-81
2022/08/16 01:08:36;;;;;;;16.60;12.70;;;;;;;26.49;61.50;100667.41;5071610;28;20024;-81
2022/08/16 01:11:02;;;;;;;;;;;;;;;26.56;61.66;100682.47;5073144;28;20034;-81
2022/08/16 01:13:31;;;;;;;15.90;12.35;;;;;;;26.50;61.82;100691.50;5073126;28;20015;-81
2022/08/16 01:16:03;;;;;;;14.98;12.23;;;;;;;26.46;61.76;100679.06;5089704;28;20028;-81
2022/08/16 01:18:34;;;;;;;13.95;12.07;;;;;;;26.50;61.65;100686.16;5074287;28;20025;-81
2022/08/16 01:21:12;;;;;;;17.45;12.85;;;;;;;26.48;61.87;100687.06;5073615;28;20078;-81
2022/08/16 01:23:53;;;;;;;15.60;13.10;;;;;;;26.45;61.74;100692.47;5073417;28;20020;-81
2022/08/16 01:26:19;;;;;;;15.38;13.20;;;;;;;26.47;61.65;100691.53;5073629;28;20025;-81
2022/08/16 01:28:44;;;;;;;;;;;;;;;26.51;61.64;100690.59;5071988;28;20116;-81
2022/08/16 01:31:11;;;;;;;15.55;12.02;;;;;;;26.44;61.48;100686.22;5071234;28;20002;-81
2022/08/16 01:33:37;;;;;;;15.65;12.00;;;;;;;26.39;61.70;100682.69;5072354;28;20028;-81
2022/08/16 01:36:04;;;;;;;;;;;;;;;26.49;61.48;100700.44;5072520;28;20686;-81
2022/08/16 01:38:33;;;;;;;16.05;12.40;;;;;;;26.45;61.48;100698.69;5071219;28;20401;-80
2022/08/16 01:41:21;;;;;;;14.32;11.93;;;;;;;26.44;61.52;100696.94;5072168;28;20024;-81
2022/08/16 01:43:48;;;;;;;15.00;12.07;;;;;;;26.40;61.79;100679.13;5072145;28;20029;-82
2022/08/16 01:46:30;;;;;;;16.40;12.23;;;;;;;26.43;61.87;100689.78;5072086;28;20102;-81
2022/08/16 01:49:22;;;;;;;15.05;12.60;;;;;;;26.46;61.84;100689.78;5072591;28;20039;-81
2022/08/16 01:51:53;;;;;;;14.05;12.25;;;;;;;26.38;61.58;100673.78;5070291;28;20029;-81
2022/08/16 01:54:21;;;;;;;15.02;12.23;;;;;;;26.42;61.53;100680.00;5070683;28;20036;-81
2022/08/16 01:56:46;;;;;;;14.50;12.45;;;;;;;26.43;61.57;100684.44;5080801;28;20036;-81
2022/08/16 01:59:12;;;;;;;;;;;;;;;26.48;61.70;100676.34;5072358;28;20074;-80
2022/08/16 02:01:38;;;;;;;15.82;12.88;;;;;;;26.27;61.72;100646.28;5074843;28;19918;-81
2022/08/16 02:04:04;;;;;;;14.95;12.25;;;;;;;26.43;61.67;100671.06;5071203;28;20039;-81
2022/08/16 02:06:30;;;;;;;;;;;;;;;26.44;61.57;100683.53;5072366;28;20025;-81
2022/08/16 02:08:56;;;;;;;16.60;12.57;;;;;;;26.25;61.68;100645.41;5072041;28;19908;-81
2022/08/16 02:11:23;;;;;;;14.38;12.15;;;;;;;26.32;61.46;100665.84;5071552;28;20079;-81
2022/08/16 02:13:49;;;;;;;15.57;12.30;;;;;;;26.40;61.40;100673.78;5071530;28;20031;-80
2022/08/16 02:16:14;;;;;;;;;;;;;;;26.45;61.41;100679.06;5078826;28;20043;-81
2022/08/16 02:18:41;;;;;;;14.70;12.27;;;;;;;26.41;61.61;100681.78;5074027;28;20389;-80
2022/08/16 02:21:07;;;;;;;16.20;12.63;;;;;;;26.34;61.24;100671.19;5070857;28;20024;-81
2022/08/16 02:23:33;;;;;;;13.55;11.52;;;;;;;26.31;61.27;100672.09;5072838;28;20020;-80
2022/08/16 02:25:59;;;;;;;13.68;12.20;;;;;;;26.39;61.38;100685.38;5073165;28;20023;-81
2022/08/16 02:28:25;;;;;;;;;;;;;;;26.40;61.33;100674.66;5075089;28;20032;-81
2022/08/16 02:30:52;;;;;;;15.38;12.60;;;;;;;26.37;61.21;100681.84;5073654;28;20005;-80
2022/08/16 02:33:20;;;;;;;14.45;12.57;;;;;;;26.24;61.15;100666.84;5070681;28;20025;-80
2022/08/16 02:35:45;;;;;;;15.77;13.07;;;;;;;26.35;61.39;100689.00;5070372;28;20023;-80
2022/08/16 02:38:11;;;;;;;;;;;;;;;26.40;61.18;100687.16;5071217;28;20033;-81
2022/08/16 02:40:38;;;;;;;14.23;11.70;;;;;;;26.28;61.29;100671.25;5077867;28;19977;-80
2022/08/16 02:43:04;;;;;;;15.10;12.27;;;;;;;26.31;61.37;100680.13;5069786;28;20028;-81
2022/08/16 02:45:30;;;;;;;;;;;;;;;26.38;61.47;100684.50;5072252;28;20025;-81
2022/08/16 02:47:57;;;;;;;16.13;12.68;;;;;;;26.31;61.42;100680.13;5066417;28;19947;-80
2022/08/16 02:50:24;;;;;;;14.52;11.88;;;;;;;26.30;61.14;100681.03;5071965;28;20040;-79
2022/08/16 02:52:49;;;;;;;14.60;12.48;;;;;;;26.29;61.23;100678.34;5071096;28;20032;-81
2022/08/16 02:55:15;;;;;;;;;;;;;;;26.38;61.20;100688.97;5075196;28;20390;-80
2022/08/16 02:57:40;;;;;;;14.77;11.95;;;;;;;26.21;61.48;100662.41;5072346;28;19909;-81
2022/08/16 03:00:11;;;;;;;;;;;;;;;26.37;61.47;100697.91;5080745;28;20047;-81
2022/08/16 03:02:39;;;;;;;13.05;11.60;;;;;;;26.34;61.51;100689.91;5070768;28;19935;-80
2022/08/16 03:05:05;;;;;;;15.88;12.50;;;;;;;26.26;61.42;100673.06;5071217;28;20070;-80
2022/08/16 03:07:31;;;;;;;13.95;12.07;;;;;;;26.27;61.18;100678.41;5079709;28;20054;-80
2022/08/16 03:09:56;;;;;;;;;;;;;;;26.35;61.26;100687.22;5071022;28;20088;-81
2022/08/16 03:12:22;;;;;;;16.02;12.35;;;;;;;26.31;61.42;100682.81;5071597;28;19912;-80
2022/08/16 03:14:48;;;;;;;15.40;12.60;;;;;;;26.23;61.22;100675.78;5072960;28;20025;-81
2022/08/16 03:17:14;;;;;;;;;;;;;;;26.33;61.05;100688.13;5069254;28;20038;-81
2022/08/16 03:19:39;;;;;;;13.70;11.77;;;;;;;26.31;61.27;100688.16;5069843;28;19919;-80
2022/08/16 03:22:05;;;;;;;;;;;;;;;26.32;61.05;100679.22;5070599;28;20112;-80
2022/08/16 03:24:31;;;;;;;12.70;11.05;;;;;;;26.20;61.29;100682.94;5071540;28;20002;-80
2022/08/16 03:27:01;;;;;;;15.45;12.15;;;;;;;26.26;61.49;100689.13;5072541;28;20490;-80
2022/08/16 03:29:28;;;;;;;14.80;12.20;;;;;;;26.26;61.09;100681.97;5073983;28;20513;-81
2022/08/16 03:31:54;;;;;;;13.20;11.77;;;;;;;26.07;61.28;100653.66;5071796;28;20116;-80
2022/08/16 03:34:20;;;;;;;;;;;;;;;26.28;61.22;100687.31;5069451;28;20107;-81
2022/08/16 03:36:46;;;;;;;14.30;11.55;;;;;;;26.17;60.91;100676.75;5070709;28;20365;-81
2022/08/16 03:39:12;;;;;;;14.07;12.02;;;;;;;26.25;60.99;100695.41;5069450;28;20029;-79
2022/08/16 03:41:39;;;;;;;;;;;;;;;26.28;60.78;100695.34;5072551;28;20036;-81
2022/08/16 03:44:06;;;;;;;14.57;11.60;;;;;;;26.13;61.13;100686.59;5080623;28;20516;-81
2022/08/16 03:46:33;;;;;;;14.45;11.93;;;;;;;26.22;60.90;100706.13;5077683;28;20119;-79
2022/08/16 03:48:58;;;;;;;15.73;11.95;;;;;;;26.21;60.87;100707.91;5082613;28;20367;-79
2022/08/16 03:51:24;;;;;;;;;;;;;;;26.23;60.76;100711.47;5071057;28;20033;-81
2022/08/16 03:53:50;;;;;;;15.23;11.93;;;;;;;26.15;60.89;100708.88;5078359;28;19938;-80
2022/08/16 03:56:15;;;;;;;15.73;12.60;;;;;;;26.12;61.03;100703.56;5070570;28;20099;-80
2022/08/16 03:58:41;;;;;;;;;;;;;;;26.23;60.65;100714.16;5086709;28;20084;-80
2022/08/16 04:01:07;;;;;;;15.05;11.93;;;;;;;26.23;60.78;100713.25;5084775;28;19965;-80
2022/08/16 04:03:33;;;;;;;14.15;11.43;;;;;;;26.00;60.62;100671.56;5083188;28;20027;-80
2022/08/16 04:05:58;;;;;;;;;;;;;;;26.23;60.46;100706.13;5076528;28;20016;-80
2022/08/16 04:08:24;;;;;;;13.32;11.75;;;;;;;26.12;60.58;100689.28;5074284;28;19999;-80
2022/08/16 04:10:52;;;;;;;14.43;11.82;;;;;;;26.18;60.55;100711.53;5074321;28;20150;-79
2022/08/16 04:13:18;;;;;;;13.32;11.38;;;;;;;25.95;60.68;100671.63;5088323;28;20031;-81
2022/08/16 04:15:43;;;;;;;;;;;;;;;26.23;60.66;100718.63;5083300;28;20111;-79
2022/08/16 04:18:09;;;;;;;13.63;11.30;;;;;;;26.19;60.81;100718.63;5073316;28;19909;-80
2022/08/16 04:20:34;;;;;;;;;;;;;;;26.19;60.85;100718.63;5073976;28;20107;-80
2022/08/16 04:23:00;;;;;;;15.75;11.93;;;;;;;26.16;60.88;100713.34;5075958;28;19955;-80
2022/08/16 04:25:27;;;;;;;16.35;11.90;;;;;;;26.17;60.87;100723.13;5071807;28;20072;-79
2022/08/16 04:27:53;;;;;;;13.98;11.38;;;;;;;26.15;60.71;100708.88;5071505;28;20039;-80
2022/08/16 04:30:21;;;;;;;14.32;11.98;;;;;;;26.18;60.71;100721.31;5072446;28;20055;-80
2022/08/16 04:32:46;;;;;;;15.00;11.65;;;;;;;26.16;60.88;100721.38;5067066;28;20123;-80
2022/08/16 04:35:15;;;;;;;;;;;;;;;26.18;60.78;100724.00;5073305;28;20111;-81
2022/08/16 04:37:42;;;;;;;15.32;11.82;;;;;;;26.10;60.95;100709.81;5078981;28;19912;-80
2022/08/16 04:40:09;;;;;;;14.55;11.98;;;;;;;25.99;61.05;100691.19;5091156;28;20178;-79
2022/08/16 04:42:38;;;;;;;12.57;11.10;;;;;;;26.13;61.04;100716.03;5074526;28;20033;-81
2022/08/16 04:45:05;;;;;;;13.57;11.35;;;;;;;26.15;60.88;100716.91;5073876;28;20035;-80
2022/08/16 04:47:31;;;;;;;16.73;11.77;;;;;;;26.15;60.59;100706.19;5079729;28;20040;-82
2022/08/16 04:49:57;;;;;;;;;;;;;;;26.18;60.72;100714.19;5079248;28;20021;-82
2022/08/16 04:52:23;;;;;;;14.13;11.43;;;;;;;25.97;60.51;100687.66;5077488;28;19916;-83
2022/08/16 04:54:48;;;;;;;13.45;11.90;;;;;;;26.15;60.63;100719.56;5084651;28;20409;-81
2022/08/16 04:57:14;;;;;;;;;;;;;;;26.17;60.72;100723.13;5071849;28;20031;-82
2022/08/16 04:59:40;;;;;;;14.80;11.48;;;;;;;25.97;60.65;100690.31;5073452;28;19908;-82
2022/08/16 05:02:06;;;;;;;;;;;;;;;26.16;60.82;100717.78;5072452;28;20029;-81
2022/08/16 05:04:39;;;;;;;12.68;10.98;;;;;;;26.05;60.89;100707.19;5072426;28;20003;-90
2022/08/16 05:07:05;;;;;;;12.88;11.43;;;;;;;25.95;60.87;100693.03;5078934;28;20024;-84
2022/08/16 05:09:30;;;;;;;;;;;;;;;26.17;60.73;100724.91;5075263;28;20028;-82
2022/08/16 05:11:56;;;;;;;12.73;10.45;;;;;;;26.09;60.61;100719.63;5071624;28;20385;-82
2022/08/16 05:14:21;;;;;;;;;;;;;;;26.14;60.83;100725.84;5074053;28;20045;-83
2022/08/16 05:16:47;;;;;;;15.48;12.32;;;;;;;26.11;60.73;100724.97;5074513;28;19916;-82
2022/08/16 05:19:12;;;;;;;;;;;;;;;26.14;60.71;100720.50;5071697;28;20020;-83
2022/08/16 05:21:38;;;;;;;13.73;12.00;;;;;;;25.90;61.12;100684.16;5074724;28;19916;-83
2022/08/16 05:24:04;;;;;;;;;;;;;;;26.14;60.72;100725.84;5073759;28;20024;-82
2022/08/16 05:26:31;;;;;;;13.43;11.52;;;;;;;26.04;60.59;100699.19;5073799;28;19908;-82
2022/08/16 05:29:00;;;;;;;16.48;12.32;;;;;;;26.10;60.71;100720.50;5079429;28;20039;-87
2022/08/16 05:31:28;;;;;;;14.43;11.75;;;;;;;25.94;61.05;100693.03;5077783;28;20034;-84
2022/08/16 05:33:53;;;;;;;14.05;11.88;;;;;;;25.85;60.93;100675.28;5085936;28;20269;-82
2022/08/16 05:36:19;;;;;;;;;;;;;;;26.15;60.83;100716.00;5070499;28;20032;-84
2022/08/16 05:38:46;;;;;;;14.35;11.85;;;;;;;25.99;61.00;100700.13;5075026;28;20286;-84
2022/08/16 05:41:13;;;;;;;13.93;11.73;;;;;;;25.91;61.13;100695.78;5075304;28;20089;-83
2022/08/16 05:43:39;;;;;;;13.55;11.60;;;;;;;25.85;61.09;100677.94;5078595;28;20016;-85
2022/08/16 05:46:04;;;;;;;;;;;;;;;26.13;60.88;100729.41;5071179;28;20035;-84
2022/08/16 05:48:30;;;;;;;14.27;11.57;;;;;;;26.09;61.21;100721.44;5069371;28;19919;-83
2022/08/16 05:50:56;;;;;;;;;;;;;;;26.10;61.31;100720.50;5072699;28;20463;-83
2022/08/16 05:53:22;;;;;;;12.35;10.75;;;;;;;25.82;61.28;100674.41;5071551;28;19946;-84
2022/08/16 05:55:48;;;;;;;13.30;11.45;;;;;;;26.06;61.32;100722.34;5077288;28;20029;-84
2022/08/16 05:58:14;;;;;;;13.30;11.27;;;;;;;25.64;61.21;100656.78;5070114;28;20116;-83
2022/08/16 06:00:39;;;;;;;;;;;;;;;26.05;61.63;100728.59;5071146;28;20028;-84
2022/08/16 06:03:05;;;;;;;13.70;11.45;;;;;;;25.68;61.33;100667.41;5073475;28;19920;-82
2022/08/16 06:05:30;;;;;;;;;;;;;;;26.07;61.40;100726.78;5069347;28;20036;-82
2022/08/16 06:07:56;;;;;;;12.43;10.63;;;;;;;25.61;61.51;100668.34;5072098;28;19908;-82
2022/08/16 06:10:22;;;;;;;;;;;;;;;26.07;61.69;100724.13;5070109;28;20032;-81
2022/08/16 06:12:47;;;;;;;12.05;10.73;;;;;;;26.04;62.08;100732.19;5077258;28;19912;-81
2022/08/16 06:15:15;;;;;;;;;;;;;;;26.06;61.64;100719.69;5069834;28;20035;-82
2022/08/16 06:17:41;;;;;;;13.30;11.40;;;;;;;25.86;61.68;100692.19;5081725;28;19908;-82
2022/08/16 06:20:07;;;;;;;;;;;;;;;26.06;61.80;100719.69;5074281;28;20031;-82
2022/08/16 06:22:35;;;;;;;13.52;11.05;;;;;;;25.78;61.84;100676.22;5075493;28;19920;-81
2022/08/16 06:25:01;;;;;;;14.38;10.68;;;;;;;25.89;61.96;100702.91;5069347;28;20428;-80
2022/08/16 06:27:27;;;;;;;;;;;;;;;26.05;61.61;100714.34;5073930;28;20085;-85
2022/08/16 06:29:52;;;;;;;12.98;10.75;;;;;;;25.72;61.49;100673.63;5054744;28;19916;-83
2022/08/16 06:32:18;;;;;;;;;;;;;;;25.93;61.78;100723.38;5071662;28;20044;-83
2022/08/16 06:34:44;;;;;;;13.00;10.48;;;;;;;25.88;61.19;100706.44;5076202;28;19912;-83
2022/08/16 06:37:09;;;;;;;;;;;;;;;25.95;61.47;100722.47;5079136;28;20035;-83
2022/08/16 06:39:35;;;;;;;12.93;10.73;;;;;;;25.88;61.32;100710.00;5072775;28;19916;-85
2022/08/16 06:42:01;;;;;;;;;;;;;;;25.98;61.25;100713.53;5075851;28;20418;-82
2022/08/16 06:44:27;;;;;;;12.13;10.52;;;;;;;25.80;60.98;100682.44;5070642;28;19912;-83
2022/08/16 06:46:52;;;;;;;;;;;;;;;25.99;61.07;100707.25;5081425;28;20032;-82
2022/08/16 06:49:19;;;;;;;12.93;10.95;;;;;;;25.72;60.99;100663.81;5083918;28;19919;-82
2022/08/16 06:51:44;;;;;;;11.82;10.18;;;;;;;25.88;61.37;100701.09;5078287;28;20487;-83
2022/08/16 06:54:10;;;;;;;;;;;;;;;25.98;61.22;100711.72;5080138;28;20066;-83
2022/08/16 06:56:36;;;;;;;11.57;10.32;;;;;;;25.91;61.70;100706.47;5077735;28;19943;-83
2022/08/16 06:59:02;;;;;;;11.60;10.05;;;;;;;25.96;61.22;100702.81;5061913;28;20119;-83
2022/08/16 07:01:27;;;;;;;;;;;;;;;25.94;61.49;100711.78;5081721;28;20119;-84
2022/08/16 07:03:53;;;;;;;12.50;10.90;;;;;;;25.90;61.60;100713.59;5079842;28;19924;-84
2022/08/16 07:06:19;;;;;;;;;;;;;;;25.91;61.61;100711.81;5070194;28;20088;-84
2022/08/16 07:08:45;;;;;;;13.25;10.98;;;;;;;25.58;61.50;100658.59;5083034;28;20520;-84
2022/08/16 07:11:12;;;;;;;11.90;10.20;;;;;;;25.63;61.56;100660.34;5080240;28;20032;-84
2022/08/16 07:13:38;;;;;;;11.35;10.13;;;;;;;25.95;61.40;100716.22;5070993;28;20564;-84
2022/08/16 07:16:04;;;;;;;;;;;;;;;25.97;61.38;100719.75;5070528;28;20123;-84
2022/08/16 07:18:31;;;;;;;12.60;10.82;;;;;;;25.89;61.38;100702.91;5071453;28;19920;-86
2022/08/16 07:20:57;;;;;;;11.82;10.30;;;;;;;25.72;61.26;100654.91;5072253;28;20089;-84
2022/08/16 07:23:24;;;;;;;12.40;10.65;;;;;;;25.62;61.47;100648.75;5071541;28;20078;-84
2022/08/16 07:25:50;;;;;;;14.40;11.32;;;;;;;25.89;61.54;100693.09;5063010;28;20075;-84
2022/08/16 07:28:17;;;;;;;12.55;10.18;;;;;;;25.89;61.36;100694.91;5070282;28;20023;-84
2022/08/16 07:30:45;;;;;;;11.60;10.40;;;;;;;25.94;61.39;100707.31;5079386;28;20044;-84
2022/08/16 07:33:10;;;;;;;11.82;10.52;;;;;;;25.54;61.33;100638.13;5072427;28;20060;-83
2022/08/16 07:35:37;;;;;;;;;;;;;;;26.00;61.12;100711.72;5075184;28;20539;-83
2022/08/16 07:38:04;;;;;;;14.10;11.20;;;;;;;25.96;61.28;100707.28;5074066;28;19912;-83
2022/08/16 07:40:31;;;;;;;12.93;11.15;;;;;;;25.89;61.28;100700.25;5073905;28;20032;-83
2022/08/16 07:42:56;;;;;;;13.68;10.93;;;;;;;25.78;61.55;100686.91;5081277;28;20028;-83
2022/08/16 07:45:22;;;;;;;;;;;;;;;25.96;61.32;100702.81;5077644;28;20124;-83
2022/08/16 07:47:48;;;;;;;12.80;10.60;;;;;;;25.93;61.48;100702.88;5077715;28;20405;-84
2022/08/16 07:50:15;;;;;;;;;;;;;;;25.95;61.52;100697.47;5076325;28;20025;-82
2022/08/16 07:52:42;;;;;;;12.05;10.50;;;;;;;25.85;61.19;100677.94;5080649;28;19916;-83
2022/08/16 07:55:12;;;;;;;13.07;11.35;;;;;;;25.99;61.17;100697.47;5081267;28;20033;-82
2022/08/16 07:57:40;;;;;;;12.48;10.57;;;;;;;26.01;61.22;100700.09;5076263;28;20028;-83
2022/08/16 08:00:07;;;;;;;12.88;11.15;;;;;;;25.88;61.33;100677.03;5073182;28;20021;-83
2022/08/16 08:02:33;;;;;;;12.73;10.95;;;;;;;26.00;61.23;100691.19;5074029;28;20013;-84
2022/08/16 08:04:58;;;;;;;12.27;11.00;;;;;;;25.97;61.57;100684.97;5073303;28;20104;-84
2022/08/16 08:07:24;;;;;;;;;;;;;;;25.98;61.55;100693.00;5074501;28;20104;-83
2022/08/16 08:09:51;;;;;;;13.75;11.43;;;;;;;25.96;61.81;100683.22;5082061;28;19912;-83
2022/08/16 08:12:18;;;;;;;13.52;11.52;;;;;;;25.97;61.60;100688.56;5082064;28;20509;-84
2022/08/16 08:14:47;;;;;;;15.43;12.38;;;;;;;25.94;61.63;100669.84;5074843;28;20020;-84
2022/08/16 08:17:15;;;;;;;14.98;12.60;;;;;;;25.91;61.79;100663.66;5072013;28;20107;-86
2022/08/16 08:19:40;;;;;;;13.40;11.80;;;;;;;25.98;61.71;100679.63;5073647;28;20099;-85
2022/08/16 08:22:06;;;;;;;;;;;;;;;26.05;61.36;100674.19;5073683;28;20524;-85
2022/08/16 08:24:33;;;;;;;14.73;11.75;;;;;;;25.86;61.46;100647.59;5075031;28;19912;-84
2022/08/16 08:27:02;;;;;;;14.88;12.27;;;;;;;25.83;61.79;100644.97;5071856;28;20944;-85
2022/08/16 08:29:28;;;;;;;15.13;12.27;;;;;;;25.87;61.35;100632.47;5071291;28;20124;-86
2022/08/16 08:31:54;;;;;;;;;;;;;;;26.09;61.75;100663.44;5074559;28;20020;-85
2022/08/16 08:34:23;;;;;;;14.90;12.90;;;;;;;25.92;61.59;100636.00;5073074;28;20402;-85
2022/08/16 08:36:49;;;;;;;15.73;12.85;;;;;;;26.03;61.47;100654.59;5056004;28;20493;-85
2022/08/16 08:39:15;;;;;;;;;;;;;;;26.07;61.90;100659.88;5072604;28;20137;-84
2022/08/16 08:41:42;;;;;;;14.20;11.65;;;;;;;26.08;61.52;100653.66;5073279;28;20401;-86
2022/08/16 08:44:08;;;;;;;14.68;12.23;;;;;;;26.03;61.67;100641.22;5070884;28;20016;-85
2022/08/16 08:46:34;;;;;;;14.95;12.77;;;;;;;26.16;61.71;100654.44;5076252;28;20449;-84
2022/08/16 08:49:00;;;;;;;;;;;;;;;26.15;61.26;100657.13;5082560;28;20028;-86
2022/08/16 08:51:27;;;;;;;16.33;12.85;;;;;;;26.09;61.51;100652.72;5072141;28;19915;-86
2022/08/16 08:53:53;;;;;;;14.38;12.07;;;;;;;25.86;61.46;100606.59;5064140;28;20033;-86
2022/08/16 08:56:18;;;;;;;;;;;;;;;26.23;61.21;100657.94;5073846;28;20051;-86
2022/08/16 08:58:44;;;;;;;15.15;11.73;;;;;;;26.01;61.48;100625.16;5072864;28;20286;-85
2022/08/16 09:01:10;;;;;;;;;;;;;;;26.23;61.85;100667.75;5073144;28;20032;-85
2022/08/16 09:03:37;;;;;;;16.17;13.15;;;;;;;26.16;61.43;100656.22;5057605;28;19989;-85
2022/08/16 09:06:04;;;;;;;14.93;12.93;;;;;;;26.18;61.32;100659.75;5057077;28;20524;-84
2022/08/16 09:08:31;;;;;;;13.82;12.32;;;;;;;25.85;61.39;100596.81;5088313;28;20500;-84
2022/08/16 09:10:58;;;;;;;17.25;13.05;;;;;;;25.79;61.69;100582.59;5071762;28;20021;-83
2022/08/16 09:13:24;;;;;;;14.70;12.50;;;;;;;26.21;61.20;100654.38;5071286;28;20028;-84
2022/08/16 09:15:52;;;;;;;13.65;12.25;;;;;;;26.11;61.63;100642.00;5073055;28;20028;-86
2022/08/16 09:18:18;;;;;;;15.20;12.32;;;;;;;26.21;61.69;100638.31;5056172;28;20063;-85
2022/08/16 09:20:44;;;;;;;13.75;12.02;;;;;;;26.05;61.46;100594.78;5065813;28;20036;-84
2022/08/16 09:23:11;;;;;;;15.25;12.63;;;;;;;26.26;61.22;100623.06;5064124;28;20470;-85
2022/08/16 09:25:37;;;;;;;14.18;11.95;;;;;;;26.32;61.45;100640.84;5058397;28;20039;-84
2022/08/16 09:28:03;;;;;;;;;;;;;;;26.30;61.33;100648.91;5072043;28;20460;-85
2022/08/16 09:30:29;;;;;;;16.02;13.07;;;;;;;26.27;61.55;100646.28;5076653;28;19966;-85
2022/08/16 09:32:54;;;;;;;16.30;13.02;;;;;;;26.30;61.40;100634.63;5083919;28;20032;-85
2022/08/16 09:35:23;;;;;;;;;;;;;;;26.42;61.72;100642.50;5071671;28;20052;-85
2022/08/16 09:37:48;;;;;;;16.77;12.80;;;;;;;26.32;61.47;100635.50;5072658;28;19959;-84
2022/08/16 09:40:14;;;;;;;;;;;;;;;26.40;61.17;100647.00;5075357;28;20033;-85
2022/08/16 09:42:40;;;;;;;13.20;11.68;;;;;;;26.42;61.76;100650.56;5074219;28;19955;-85
2022/08/16 09:45:07;;;;;;;13.40;12.00;;;;;;;26.31;61.39;100628.38;5072634;28;20059;-85
2022/08/16 09:47:39;;;;;;;14.10;12.57;;;;;;;26.26;61.49;100625.75;5073505;28;20048;-85
2022/08/16 09:50:10;;;;;;;13.82;12.15;;;;;;;26.28;61.37;100628.41;5073037;28;20035;-85
2022/08/16 09:52:36;;;;;;;14.75;12.77;;;;;;;26.41;61.68;100644.28;5070936;28;20081;-85
2022/08/16 09:55:08;;;;;;;13.65;11.95;;;;;;;26.36;61.47;100630.09;5070785;28;20052;-85
2022/08/16 09:57:37;;;;;;;14.32;12.30;;;;;;;26.44;61.24;100648.75;5054403;28;20017;-85
2022/08/16 10:00:06;;;;;;;14.48;12.57;;;;;;;26.11;61.69;100596.50;5060907;28;20029;-85
2022/08/16 10:02:32;;;;;;;14.85;12.65;;;;;;;26.35;61.29;100627.41;5066648;28;20093;-85
2022/08/16 10:04:58;;;;;;;;;;;;;;;26.46;61.47;100641.56;5072087;28;20689;-84
2022/08/16 10:07:26;;;;;;;15.13;12.57;;;;;;;26.50;61.80;100645.06;5069786;28;20377;-85
2022/08/16 10:09:52;;;;;;;14.98;12.55;;;;;;;26.14;61.44;100585.75;5053789;28;20040;-85
2022/08/16 10:15:01;;;;;;;14.88;12.75;;;;;;;26.23;61.73;100601.72;5071209;28;19915;-85
2022/08/16 10:17:27;;;;;;;;;;;;;;;26.55;61.29;100651.28;5067896;28;20585;-86
2022/08/16 10:19:54;;;;;;;16.38;13.73;;;;;;;26.32;61.60;100624.78;5052804;28;19919;-86
2022/08/16 10:22:23;;;;;;;14.32;12.82;;;;;;;26.25;61.88;100620.44;5066877;28;20579;-85
2022/08/16 10:24:48;;;;;;;16.55;13.23;;;;;;;26.33;61.26;100616.75;5069493;28;20026;-84
2022/08/16 10:27:14;;;;;;;;;;;;;;;26.56;61.75;100659.31;5075476;28;20024;-84
2022/08/16 10:29:39;;;;;;;16.10;13.13;;;;;;;26.20;61.91;100589.25;5066495;28;19928;-85
2022/08/16 10:32:05;;;;;;;;;;;;;;;26.58;61.59;100648.56;5071257;28;20024;-85
2022/08/16 10:34:32;;;;;;;16.73;13.50;;;;;;;26.34;61.48;100615.84;5069108;28;19920;-86
2022/08/16 10:36:58;;;;;;;;;;;;;;;26.58;61.30;100652.13;5069332;28;20032;-85
2022/08/16 10:39:24;;;;;;;15.80;13.98;;;;;;;26.53;61.64;100645.03;5064196;28;19978;-86
2022/08/16 10:41:53;;;;;;;;;;;;;;;26.64;61.66;100655.63;5063719;28;20044;-86
2022/08/16 10:44:19;;;;;;;17.10;13.95;;;;;;;26.39;61.45;100608.63;5045309;28;20446;-84
2022/08/16 10:46:45;;;;;;;15.32;13.73;;;;;;;26.24;61.52;100583.84;5071084;28;20036;-87
2022/08/16 10:49:11;;;;;;;;;;;;;;;26.60;61.58;100652.97;5070147;28;20103;-86
2022/08/16 10:51:38;;;;;;;15.68;13.75;;;;;;;26.25;61.52;100580.28;5052139;28;19912;-85
2022/08/16 10:54:04;;;;;;;16.02;14.25;;;;;;;26.11;61.75;100573.31;5077762;28;20505;-86
2022/08/16 10:56:31;;;;;;;18.75;15.23;;;;;;;26.36;62.69;100615.81;5078192;28;20039;-88
2022/08/16 10:58:58;;;;;;;15.77;14.02;;;;;;;26.60;61.94;100650.31;5083439;28;20481;-86
2022/08/16 11:01:33;;;;;;;15.40;13.80;;;;;;;26.58;61.92;100646.75;5062838;28;20112;-88
2022/08/16 11:04:01;;;;;;;16.58;14.40;;;;;;;26.34;62.62;100614.94;5080452;28;20555;-88
2022/08/16 11:06:27;;;;;;;16.85;14.35;;;;;;;26.69;62.11;100668.06;5068597;28;20406;-87
2022/08/16 11:08:53;;;;;;;15.15;13.48;;;;;;;26.42;62.00;100634.47;5069524;28;20478;-88
2022/08/16 11:11:18;;;;;;;;;;;;;;;26.66;61.99;100686.84;5071627;28;20025;-87
2022/08/16 11:13:45;;;;;;;15.82;14.23;;;;;;;26.58;62.22;100675.34;5070446;28;19927;-87
2022/08/16 11:16:11;;;;;;;15.60;14.00;;;;;;;26.62;62.08;100685.13;5069488;28;20025;-85
2022/08/16 11:18:37;;;;;;;;;;;;;;;26.72;62.26;100688.56;5071627;28;20025;-86
2022/08/16 11:21:03;;;;;;;15.10;13.38;;;;;;;26.38;62.02;100652.38;5052947;28;19915;-86
2022/08/16 11:23:29;;;;;;;15.43;13.35;;;;;;;26.66;62.38;100710.06;5070434;28;20020;-86
2022/08/16 11:25:55;;;;;;;15.40;13.75;;;;;;;26.49;62.56;100659.38;5069708;28;20032;-86
2022/08/16 11:28:21;;;;;;;;;;;;;;;26.70;62.17;100710.00;5069965;28;20359;-86
2022/08/16 11:30:48;;;;;;;16.00;12.95;;;;;;;26.71;62.61;100724.28;5076322;28;19920;-85